LiveATC.Net - Listen to live air traffic control over the Internet!


ICAO: KLWS  IATA: LWS   Airport: Lewiston-Nez Perce County Airport
City: Lewiston   State/Province: Idaho
Country: United States   Continent: North America
KLWS METAR Weather: KLWS 250556Z AUTO 17005KT 9SM CLR 27/01 A2994 RMK AO2 SLP127 T02720006 10367 20272 51006
KLWS Flight Activity (FlightAware)
KLWS Airport Info   (iFlightPlanner)
KLWS VFR Sectional Chart   (iFlightPlanner) 
KLWS IFR Low Chart   (iFlightPlanner) 

KLWS Ground/Tower
Feed Status: UP   Listeners: 0
Listen in your browser - HTML5 player (in browser, HTML5)
Click here to listen with your own player (launches your MP3 player)
Archive Access: KLWS Ground/Tower
FacilityFrequency
Lewiston Ground121.900
Lewiston Tower119.400

NOTICE

Unauthorized use prohibited. See LiveATC.net Terms of Service


Airport/ARTCC Code
Frequency Search
(e.g., 124.400, 128.75)
Site-wide search
 


Browse Feeds
Top 50 Feeds
HF Oceanic Feeds
Coverage Map
Bad Weather Areas

LiveATC FAQ
Offer LiveATC feed
Contact LiveATC.net
Press Inquiries

LiveATC on iPhone
LiveATC on Android

Windows Phone
Windows 8/10

LiveATC Mobile
(Mobile browser)

ATC Audio Archives
Interesting Recordings

LiveATC Forums


Home Page
About LiveATC.net
Make a Donation
Terms of Use
Privacy Policy

Canadian Air Freqs

AIRMETs/SIGMETs

FAA Airport Status
NAS Status
Arrival Demand


Server Software By:
Icecast.org
Liquidsoap